Lakemoor, Illinois
Current Conditions -  °F | °C
As of 3:14 AM on Saturday 22 Nov 2014 (Local Time) from KUGN Reporting Station
Unknown Precip Unknown Precip  
Wind Chill: 22°   Ceiling: 8000
Heat Index: 32°   Visibility: 7mi
Dew Point: 27°   Wind: 15mph
Humidity: 82%   Direction: 210°SSW
Pressure: 30.05"   Gusts: NA
Location:  42.338°N, 88.2857°W
Report Text: KUGN 220914Z 21013KT 7SM UP FEW019 BKN080 OVC110 00/M03 A3005 RMK AO2 P0000 T00001028
Loading
Personal Weather Stations






























Interactive Weather Map New forecast layout! Learn more

10-Day Weather Forecast

Advertisements
Track Severe Weather on mobile